createdAt,value
2022-08-10T00:00:56.878Z,47.41
2022-08-10T00:03:23.510Z,47.60
2022-08-10T00:05:52.592Z,47.09
2022-08-10T00:08:22.626Z,46.37
2022-08-10T00:10:55.845Z,46.46
2022-08-10T00:13:24.839Z,46.34
2022-08-10T00:15:55.060Z,46.84
2022-08-10T00:18:31.516Z,46.98
2022-08-10T00:21:07.309Z,47.46
2022-08-10T00:23:34.665Z,47.92
2022-08-10T00:26:02.102Z,48.04
2022-08-10T00:28:29.095Z,48.00
2022-08-10T00:30:55.937Z,47.79
2022-08-10T00:33:22.931Z,47.63
2022-08-10T00:35:49.713Z,47.74
2022-08-10T00:38:16.583Z,47.59
2022-08-10T00:40:43.190Z,47.80
2022-08-10T00:43:09.835Z,48.90
2022-08-10T00:45:36.848Z,49.56
2022-08-10T00:48:04.091Z,49.48
2022-08-10T00:50:30.831Z,49.59
2022-08-10T00:52:57.816Z,49.55
2022-08-10T00:55:24.907Z,49.21
2022-08-10T00:57:54.760Z,48.75
2022-08-10T01:00:23.307Z,48.94
2022-08-10T01:02:50.213Z,49.37
2022-08-10T01:05:16.940Z,49.47
2022-08-10T01:08:12.910Z,49.95
2022-08-10T01:12:39.170Z,49.22
2022-08-10T01:14:09.422Z,49.28
2022-08-10T01:17:02.918Z,49.36
2022-08-10T01:20:12.642Z,49.89
2022-08-10T01:23:03.132Z,50.44
2022-08-10T01:26:11.494Z,51.17
2022-08-10T01:28:53.954Z,51.19
2022-08-10T01:31:26.607Z,51.08
2022-08-10T01:34:02.929Z,50.24
2022-08-10T01:36:35.333Z,50.34
2022-08-10T01:39:04.047Z,50.55
2022-08-10T01:41:46.918Z,50.23
2022-08-10T01:44:32.160Z,50.16
2022-08-10T01:47:03.475Z,50.39
2022-08-10T01:49:31.817Z,51.13
2022-08-10T01:52:00.891Z,51.65
2022-08-10T01:54:29.654Z,51.25
2022-08-10T01:56:58.175Z,51.92
2022-08-10T01:59:32.649Z,51.84
2022-08-10T02:02:04.016Z,51.65
2022-08-10T02:04:34.750Z,51.57
2022-08-10T02:07:02.692Z,51.68
2022-08-10T02:09:34.507Z,51.99
2022-08-10T02:12:08.646Z,52.47
2022-08-10T02:14:40.486Z,52.07
2022-08-10T02:18:00.178Z,52.06
2022-08-10T02:20:02.235Z,51.73
2022-08-10T02:22:37.416Z,51.71
2022-08-10T02:25:41.703Z,51.40
2022-08-10T02:28:30.494Z,51.41
2022-08-10T02:31:06.584Z,51.67
2022-08-10T02:33:38.165Z,51.88
2022-08-10T02:36:08.369Z,51.96
2022-08-10T02:38:59.727Z,52.23
2022-08-10T02:42:18.889Z,52.22
2022-08-10T02:45:18.410Z,52.89
2022-08-10T02:47:46.751Z,52.85
2022-08-10T02:50:32.501Z,52.26
2022-08-10T02:53:54.453Z,52.08
2022-08-10T02:56:27.368Z,51.66
2022-08-10T02:59:39.725Z,51.27
2022-08-10T03:02:16.579Z,50.93
2022-08-10T03:04:58.465Z,51.12
2022-08-10T03:07:43.581Z,50.79
2022-08-10T03:10:39.555Z,50.73
2022-08-10T03:13:13.154Z,50.92
2022-08-10T03:15:40.634Z,51.02
2022-08-10T03:18:11.982Z,51.09
2022-08-10T03:20:43.387Z,51.20
2022-08-10T03:23:16.530Z,51.39
2022-08-10T03:25:52.686Z,51.29
2022-08-10T03:28:25.727Z,52.07
2022-08-10T03:30:53.146Z,52.79
2022-08-10T03:33:21.880Z,52.88
2022-08-10T03:36:43.773Z,53.36
2022-08-10T03:38:36.966Z,52.82
2022-08-10T03:41:06.137Z,53.33
2022-08-10T03:43:34.185Z,53.67
2022-08-10T03:46:06.132Z,53.48
2022-08-10T03:48:48.523Z,53.84
2022-08-10T03:51:18.030Z,53.80
2022-08-10T03:54:04.221Z,54.08
2022-08-10T03:56:33.469Z,54.08
2022-08-10T03:59:01.484Z,54.09
2022-08-10T04:02:44.210Z,53.58
2022-08-10T04:04:23.288Z,53.58
2022-08-10T04:06:55.297Z,53.31
2022-08-10T04:09:53.542Z,53.52
2022-08-10T04:12:17.907Z,53.09
2022-08-10T04:14:49.140Z,53.21
2022-08-10T04:17:56.783Z,52.73
2022-08-10T04:20:29.877Z,51.94
2022-08-10T04:23:04.358Z,51.37
2022-08-10T04:25:31.702Z,52.09
2022-08-10T04:27:58.743Z,51.66
2022-08-10T04:30:27.946Z,50.65
2022-08-10T04:32:56.501Z,50.11
2022-08-10T04:35:26.058Z,50.33
2022-08-10T04:37:54.451Z,51.58
2022-08-10T04:40:28.518Z,52.40
2022-08-10T04:43:12.705Z,52.69
2022-08-10T04:45:50.525Z,52.86
2022-08-10T04:48:42.084Z,52.29
2022-08-10T04:51:20.975Z,51.67
2022-08-10T04:54:06.168Z,51.60
2022-08-10T04:56:36.045Z,50.27
2022-08-10T04:59:03.450Z,49.33
2022-08-10T05:02:21.778Z,49.40
2022-08-10T05:04:36.515Z,48.71
2022-08-10T05:07:05.447Z,48.81
2022-08-10T05:09:32.055Z,48.71
2022-08-10T05:11:58.712Z,48.07
2022-08-10T05:14:25.366Z,49.95
2022-08-10T05:16:52.212Z,51.30
2022-08-10T05:20:02.314Z,51.59
2022-08-10T05:22:05.972Z,51.85
2022-08-10T05:24:32.588Z,51.48
2022-08-10T05:27:09.268Z,51.06
2022-08-10T05:29:37.158Z,50.34
2022-08-10T05:32:04.233Z,50.38
2022-08-10T05:34:30.989Z,50.40
2022-08-10T05:36:58.695Z,50.48
2022-08-10T05:39:30.302Z,49.04
2022-08-10T05:42:01.503Z,49.25
2022-08-10T05:44:29.599Z,48.70
2022-08-10T05:46:56.378Z,49.55
2022-08-10T05:49:23.063Z,50.24
2022-08-10T05:51:49.923Z,50.84
2022-08-10T05:54:16.577Z,50.40
2022-08-10T05:56:56.843Z,50.29
2022-08-10T06:00:35.617Z,49.38
2022-08-10T06:02:35.782Z,48.79
2022-08-10T06:05:07.196Z,48.26
2022-08-10T06:07:37.406Z,47.72
2022-08-10T06:10:10.018Z,47.16
2022-08-10T06:12:54.192Z,48.00
2022-08-10T06:15:52.340Z,48.55
2022-08-10T06:18:13.641Z,48.67
2022-08-10T06:20:41.777Z,47.87
2022-08-10T06:23:09.833Z,48.95
2022-08-10T06:26:11.935Z,48.50
2022-08-10T06:28:24.735Z,48.52
2022-08-10T06:30:54.684Z,48.52
2022-08-10T06:33:25.206Z,48.43
2022-08-10T06:35:54.046Z,48.19
2022-08-10T06:38:24.270Z,47.07
2022-08-10T06:40:56.897Z,47.42
2022-08-10T06:43:26.613Z,46.38
2022-08-10T06:46:07.674Z,44.67
2022-08-10T06:48:46.937Z,44.07
2022-08-10T06:51:17.009Z,44.31
2022-08-10T06:53:54.019Z,43.68
2022-08-10T06:56:36.211Z,45.00
2022-08-10T06:59:27.891Z,43.21
2022-08-10T07:02:02.256Z,42.18
2022-08-10T07:05:05.099Z,42.64
2022-08-10T07:07:36.195Z,42.19
2022-08-10T07:10:04.052Z,43.17
2022-08-10T07:12:32.869Z,42.42
2022-08-10T07:15:01.387Z,41.25
2022-08-10T07:17:30.754Z,41.37
2022-08-10T07:20:04.253Z,42.39
2022-08-10T07:23:27.001Z,41.53
2022-08-10T07:25:23.921Z,41.39
2022-08-10T07:27:58.620Z,40.65
2022-08-10T07:30:30.395Z,40.22
2022-08-10T07:32:57.595Z,41.77
2022-08-10T07:35:26.458Z,40.24
2022-08-10T07:37:55.028Z,40.39
2022-08-10T07:40:23.164Z,40.64
2022-08-10T07:42:54.012Z,41.66
2022-08-10T07:45:20.887Z,42.18
2022-08-10T07:48:15.956Z,41.73
2022-08-10T07:50:44.392Z,41.11
2022-08-10T07:53:19.116Z,41.48
2022-08-10T07:56:03.407Z,40.50
2022-08-10T07:58:38.264Z,41.36
2022-08-10T08:01:05.496Z,40.12
2022-08-10T08:03:33.740Z,40.53
2022-08-10T08:06:03.131Z,40.79
2022-08-10T08:08:33.267Z,41.05
2022-08-10T08:11:02.322Z,40.22
2022-08-10T08:13:30.503Z,40.12
2022-08-10T08:16:16.878Z,40.46
2022-08-10T08:18:54.280Z,40.82
2022-08-10T08:24:06.555Z,39.61
2022-08-10T08:24:32.506Z,41.16
2022-08-10T08:27:05.722Z,40.17
2022-08-10T08:29:35.126Z,39.87
2022-08-10T08:32:04.534Z,40.23
2022-08-10T08:34:37.864Z,38.78
2022-08-10T08:37:07.190Z,38.11
2022-08-10T08:39:34.028Z,39.20
2022-08-10T08:42:10.783Z,38.28
2022-08-10T08:45:06.903Z,38.48
2022-08-10T08:48:03.623Z,39.27
2022-08-10T08:50:35.660Z,38.40
2022-08-10T08:53:12.896Z,39.72
2022-08-10T08:56:09.853Z,39.13
2022-08-10T08:59:00.969Z,36.63
2022-08-10T09:02:13.092Z,37.64
2022-08-10T09:05:01.583Z,36.63
2022-08-10T09:08:01.777Z,38.07
2022-08-10T09:10:48.192Z,36.84
2022-08-10T09:13:33.504Z,37.39
2022-08-10T09:16:51.588Z,37.02
2022-08-10T09:19:47.801Z,37.59
2022-08-10T09:22:43.929Z,36.62
2022-08-10T09:25:19.027Z,37.08
2022-08-10T09:27:49.569Z,36.38
2022-08-10T09:30:29.603Z,36.49
2022-08-10T09:36:22.290Z,35.85
2022-08-10T09:36:32.308Z,35.86
2022-08-10T09:39:10.295Z,36.03
2022-08-10T09:41:54.092Z,34.97
2022-08-10T09:45:05.645Z,34.59
2022-08-10T09:48:02.797Z,34.85
2022-08-10T09:51:22.397Z,34.90
2022-08-10T09:54:03.667Z,35.53
2022-08-10T09:56:48.391Z,34.93
2022-08-10T10:00:00.870Z,36.39
2022-08-10T10:02:40.221Z,34.98
2022-08-10T10:05:28.375Z,33.44
2022-08-10T10:08:05.376Z,34.72
2022-08-10T10:11:09.375Z,34.22
2022-08-10T10:14:03.810Z,33.81
2022-08-10T10:17:01.954Z,33.29
2022-08-10T10:19:47.251Z,33.82
2022-08-10T10:22:35.867Z,33.21
2022-08-10T10:25:18.238Z,33.27
2022-08-10T10:28:11.220Z,34.44
2022-08-10T10:31:06.474Z,32.92
2022-08-10T10:34:01.296Z,32.93
2022-08-10T10:36:29.543Z,33.50
2022-08-10T10:38:58.647Z,34.45
2022-08-10T10:41:57.375Z,33.33
2022-08-10T10:44:42.509Z,32.31
2022-08-10T10:47:24.524Z,32.82
2022-08-10T10:50:03.080Z,32.68
2022-08-10T10:52:42.920Z,32.58
2022-08-10T10:55:19.456Z,32.70
2022-08-10T10:57:58.451Z,31.31
2022-08-10T11:00:36.871Z,30.85
2022-08-10T11:03:30.361Z,31.15
2022-08-10T11:06:40.107Z,30.76
2022-08-10T11:10:08.801Z,30.97
2022-08-10T11:12:17.631Z,31.00
2022-08-10T11:15:02.525Z,30.57
2022-08-10T11:17:46.035Z,31.05
2022-08-10T11:20:26.727Z,31.50
2022-08-10T11:23:03.961Z,31.22
2022-08-10T11:25:33.271Z,31.63
2022-08-10T11:28:13.156Z,32.72
2022-08-10T11:30:52.392Z,31.76
2022-08-10T11:34:03.789Z,30.87
2022-08-10T11:37:04.551Z,31.45
2022-08-10T11:39:51.230Z,32.57
2022-08-10T11:42:35.820Z,31.29
2022-08-10T11:45:16.338Z,32.32
2022-08-10T11:48:04.947Z,32.67
2022-08-10T11:50:34.687Z,32.70
2022-08-10T11:53:13.523Z,31.55
2022-08-10T11:55:41.068Z,30.54
2022-08-10T11:58:12.764Z,29.22
2022-08-10T12:00:41.290Z,30.19
2022-08-10T12:03:09.480Z,29.99
2022-08-10T12:05:54.615Z,30.86
2022-08-10T12:10:02.210Z,31.05
2022-08-10T12:11:17.203Z,31.05
2022-08-10T12:14:22.846Z,29.01
2022-08-10T12:17:01.971Z,29.17
2022-08-10T12:20:01.076Z,28.44
2022-08-10T12:22:47.899Z,30.21
2022-08-10T12:25:56.489Z,30.62
2022-08-10T12:28:16.139Z,31.44
2022-08-10T12:30:50.458Z,30.36
2022-08-10T12:33:22.850Z,29.08
2022-08-10T12:36:17.353Z,28.78
2022-08-10T12:39:06.722Z,27.81
2022-08-10T12:41:48.038Z,28.70
2022-08-10T12:44:42.857Z,29.21
2022-08-10T12:47:34.697Z,29.35
2022-08-10T12:50:33.415Z,28.59
2022-08-10T12:53:06.742Z,29.07
2022-08-10T12:55:37.435Z,29.19
2022-08-10T12:58:57.453Z,29.95
2022-08-10T13:01:15.243Z,29.57
2022-08-10T13:04:22.339Z,30.10
2022-08-10T13:06:49.094Z,27.99
2022-08-10T13:09:26.000Z,29.38
2022-08-10T13:12:38.520Z,28.26
2022-08-10T13:15:45.393Z,27.81
2022-08-10T13:17:59.350Z,28.15
2022-08-10T13:23:30.197Z,26.97
2022-08-10T13:26:20.517Z,27.76
2022-08-10T13:29:12.899Z,26.43
2022-08-10T13:32:09.626Z,27.68
2022-08-10T13:35:15.892Z,26.76
2022-08-10T13:37:57.642Z,27.33
2022-08-10T13:40:38.307Z,27.71
2022-08-10T13:43:09.830Z,26.98
2022-08-10T13:45:50.129Z,27.50
2022-08-10T13:48:22.556Z,27.65
2022-08-10T13:50:51.330Z,28.45
2022-08-10T13:53:18.973Z,29.76
2022-08-10T13:55:54.053Z,29.22
2022-08-10T13:58:32.018Z,28.96
2022-08-10T14:01:00.796Z,29.25
2022-08-10T14:03:33.911Z,27.36
2022-08-10T14:06:03.377Z,28.90
2022-08-10T14:08:32.900Z,29.45
2022-08-10T14:11:11.029Z,27.88
2022-08-10T14:14:01.683Z,26.34
2022-08-10T14:16:29.683Z,27.94
2022-08-10T14:19:04.209Z,27.29
2022-08-10T14:21:31.162Z,27.87
2022-08-10T14:23:57.809Z,26.98
2022-08-10T14:26:31.776Z,27.17
2022-08-10T14:29:05.480Z,27.62
2022-08-10T14:31:36.102Z,28.15
2022-08-10T14:34:06.191Z,27.26
2022-08-10T14:36:50.948Z,27.91
2022-08-10T14:39:29.088Z,28.76
2022-08-10T14:42:13.713Z,27.96
2022-08-10T14:44:58.692Z,27.24
2022-08-10T14:50:31.452Z,26.90
2022-08-10T14:53:21.005Z,27.95
2022-08-10T14:56:01.963Z,28.09
2022-08-10T14:58:35.364Z,29.04
2022-08-10T15:01:04.973Z,28.90
2022-08-10T15:04:00.813Z,28.03
2022-08-10T15:06:30.928Z,28.78
2022-08-10T15:09:19.756Z,28.04
2022-08-10T15:12:15.019Z,27.71
2022-08-10T15:14:44.730Z,28.12
2022-08-10T15:17:16.374Z,27.34
2022-08-10T15:20:04.347Z,27.69
2022-08-10T15:22:38.603Z,27.89
2022-08-10T15:25:18.142Z,26.89
2022-08-10T15:27:54.285Z,27.20
2022-08-10T15:30:29.430Z,28.21
2022-08-10T15:32:59.980Z,26.59
2022-08-10T15:35:29.270Z,26.91
2022-08-10T15:38:03.916Z,28.07
2022-08-10T15:40:42.547Z,28.49
2022-08-10T15:43:25.092Z,28.39
2022-08-10T15:46:02.946Z,28.42
2022-08-10T15:48:42.425Z,29.00
2022-08-10T15:51:53.494Z,28.29
2022-08-10T15:54:33.149Z,28.84
2022-08-10T15:57:06.617Z,27.69
2022-08-10T15:59:43.370Z,27.89
2022-08-10T16:02:17.689Z,28.62
2022-08-10T16:05:00.050Z,28.48
2022-08-10T16:07:46.108Z,27.64
2022-08-10T16:10:28.044Z,27.34
2022-08-10T16:13:59.740Z,27.84
2022-08-10T16:15:55.586Z,27.24
2022-08-10T16:18:28.344Z,27.70
2022-08-10T16:21:02.883Z,27.94
2022-08-10T16:24:11.363Z,28.03
2022-08-10T16:26:41.542Z,28.92
2022-08-10T16:29:17.364Z,28.32
2022-08-10T16:31:59.730Z,28.20
2022-08-10T16:34:29.222Z,28.36
2022-08-10T16:37:03.935Z,28.36
2022-08-10T16:39:59.348Z,28.71
2022-08-10T16:42:24.581Z,28.97
2022-08-10T16:45:09.714Z,28.54
2022-08-10T16:47:44.835Z,29.24
2022-08-10T16:50:14.598Z,28.92
2022-08-10T16:52:43.537Z,29.69
2022-08-10T16:55:17.208Z,30.04
2022-08-10T16:57:54.353Z,29.40
2022-08-10T17:00:22.875Z,29.62
2022-08-10T17:02:55.609Z,29.91
2022-08-10T17:06:10.130Z,29.98
2022-08-10T17:08:20.333Z,29.92
2022-08-10T17:10:50.951Z,30.32
2022-08-10T17:13:21.365Z,29.70
2022-08-10T17:15:57.227Z,29.93
2022-08-10T17:18:26.523Z,29.94
2022-08-10T17:20:57.113Z,30.68
2022-08-10T17:23:25.052Z,30.02
2022-08-10T17:25:56.062Z,30.45
2022-08-10T17:28:32.929Z,30.14
2022-08-10T17:31:49.491Z,30.09
2022-08-10T17:34:17.088Z,30.12
2022-08-10T17:36:48.674Z,30.64
2022-08-10T17:39:15.734Z,30.90
2022-08-10T17:41:47.355Z,30.75
2022-08-10T17:44:16.994Z,30.94
2022-08-10T17:46:45.254Z,31.12
2022-08-10T17:49:15.114Z,31.42
2022-08-10T17:51:48.380Z,31.36
2022-08-10T17:54:25.591Z,31.11
2022-08-10T17:56:57.523Z,31.40
2022-08-10T17:59:28.318Z,31.71
2022-08-10T18:02:02.764Z,31.82
2022-08-10T18:04:41.305Z,31.66
2022-08-10T18:07:10.555Z,31.54
2022-08-10T18:09:40.548Z,31.60
2022-08-10T18:12:19.114Z,31.71
2022-08-10T18:14:50.109Z,32.35
2022-08-10T18:17:34.016Z,32.45
2022-08-10T18:20:07.893Z,32.13
2022-08-10T18:22:42.987Z,32.21
2022-08-10T18:25:18.251Z,32.28
2022-08-10T18:28:01.323Z,32.67
2022-08-10T18:30:36.606Z,32.98
2022-08-10T18:33:08.593Z,33.12
2022-08-10T18:35:35.880Z,33.05
2022-08-10T18:38:04.283Z,32.58
2022-08-10T18:40:36.266Z,33.15
2022-08-10T18:43:09.976Z,32.87
2022-08-10T18:45:56.164Z,33.46
2022-08-10T18:48:33.080Z,33.54
2022-08-10T18:51:05.961Z,33.22
2022-08-10T18:53:39.917Z,32.53
2022-08-10T18:56:31.478Z,32.68
2022-08-10T18:59:19.810Z,32.73
2022-08-10T19:02:18.293Z,33.23
2022-08-10T19:05:30.165Z,33.20
2022-08-10T19:08:31.180Z,34.00
2022-08-10T19:11:23.493Z,33.67
2022-08-10T19:14:00.604Z,33.79
2022-08-10T19:16:38.316Z,33.86
2022-08-10T19:19:27.037Z,34.19
2022-08-10T19:22:14.452Z,34.02
2022-08-10T19:25:03.737Z,34.13
2022-08-10T19:27:39.939Z,34.09
2022-08-10T19:30:13.768Z,34.10
2022-08-10T19:32:48.924Z,34.44
2022-08-10T19:35:31.014Z,34.68
2022-08-10T19:38:36.333Z,34.92
2022-08-10T19:41:30.898Z,34.78
2022-08-10T19:44:27.040Z,34.68
2022-08-10T19:47:29.174Z,34.46
2022-08-10T19:50:01.432Z,34.61
2022-08-10T19:52:49.646Z,37.06
2022-08-10T19:55:28.387Z,36.88
2022-08-10T19:57:55.004Z,37.12
2022-08-10T20:00:27.006Z,38.81
2022-08-10T20:03:21.010Z,40.68
2022-08-10T20:06:20.628Z,40.13
2022-08-10T20:08:52.441Z,40.95
2022-08-10T20:11:44.798Z,41.19
2022-08-10T20:14:34.395Z,40.69
2022-08-10T20:17:11.279Z,40.63
2022-08-10T20:19:54.868Z,40.29
2022-08-10T20:22:32.358Z,40.68
2022-08-10T20:25:05.130Z,41.31
2022-08-10T20:27:59.297Z,42.67
2022-08-10T20:30:33.420Z,42.85
2022-08-10T20:33:14.661Z,42.93
2022-08-10T20:35:58.578Z,42.42
2022-08-10T20:38:33.841Z,42.14
2022-08-10T20:41:12.942Z,42.42
2022-08-10T20:43:46.556Z,41.73
2022-08-10T20:46:35.257Z,41.08
2022-08-10T20:49:19.842Z,40.86
2022-08-10T20:51:57.883Z,40.63
2022-08-10T20:54:38.338Z,41.47
2022-08-10T20:57:55.682Z,42.17
2022-08-10T21:00:12.102Z,43.31
2022-08-10T21:02:50.692Z,42.45
2022-08-10T21:05:40.606Z,42.60
2022-08-10T21:08:21.118Z,42.73
2022-08-10T21:11:00.003Z,42.26
2022-08-10T21:13:53.449Z,41.48
2022-08-10T21:16:53.488Z,42.44
2022-08-10T21:19:53.891Z,43.47
2022-08-10T21:22:30.043Z,43.06
2022-08-10T21:25:08.496Z,41.66
2022-08-10T21:27:55.428Z,42.42
2022-08-10T21:30:37.406Z,42.87
2022-08-10T21:33:15.025Z,41.47
2022-08-10T21:35:50.863Z,42.09
2022-08-10T21:38:45.024Z,42.50
2022-08-10T21:41:21.169Z,43.42
2022-08-10T21:44:29.687Z,43.73
2022-08-10T21:47:01.682Z,43.41
2022-08-10T21:49:36.993Z,43.41
2022-08-10T21:52:16.177Z,43.55
2022-08-10T21:55:06.822Z,43.66
2022-08-10T21:57:46.663Z,44.00
2022-08-10T22:00:15.624Z,44.93
2022-08-10T22:02:50.289Z,45.34
2022-08-10T22:05:25.121Z,46.01
2022-08-10T22:08:12.145Z,45.90
2022-08-10T22:10:51.688Z,46.29
2022-08-10T22:13:19.576Z,46.10
2022-08-10T22:16:09.846Z,45.28
2022-08-10T22:18:53.703Z,44.85
2022-08-10T22:21:45.459Z,44.84
2022-08-10T22:24:37.422Z,44.97
2022-08-10T22:27:46.309Z,45.59
2022-08-10T22:30:07.825Z,45.92
2022-08-10T22:32:42.497Z,45.73
2022-08-10T22:35:53.671Z,43.59
2022-08-10T22:38:39.136Z,43.01
2022-08-10T22:41:21.769Z,43.21
2022-08-10T22:43:49.866Z,43.84
2022-08-10T22:46:24.831Z,44.24
2022-08-10T22:48:52.156Z,45.12
2022-08-10T22:51:22.994Z,44.17
2022-08-10T22:53:57.690Z,43.50
2022-08-10T22:56:24.520Z,43.18
2022-08-10T22:58:51.210Z,43.40
2022-08-10T23:01:19.341Z,43.06
2022-08-10T23:03:52.329Z,43.35
2022-08-10T23:06:26.063Z,43.31
2022-08-10T23:09:02.827Z,43.33
2022-08-10T23:11:35.726Z,43.66
2022-08-10T23:14:05.811Z,43.91
2022-08-10T23:16:48.273Z,43.94
2022-08-10T23:19:30.858Z,46.20
2022-08-10T23:22:11.633Z,47.04
2022-08-10T23:24:46.643Z,46.14
2022-08-10T23:27:37.832Z,46.91
2022-08-10T23:30:10.317Z,47.93
2022-08-10T23:32:44.083Z,47.45
2022-08-10T23:36:31.269Z,48.70
2022-08-10T23:38:04.858Z,49.35
2022-08-10T23:40:33.026Z,48.21
2022-08-10T23:43:01.650Z,47.60
2022-08-10T23:45:30.248Z,48.27
2022-08-10T23:48:23.594Z,49.88
2022-08-10T23:50:58.371Z,50.46
2022-08-10T23:53:30.151Z,50.98
2022-08-10T23:56:10.896Z,50.94
2022-08-10T23:58:49.645Z,51.35
